Airfield :
LOGIN :

Register | Disclaimer

   EN    FR    IT 

 










Legend :    VFR   Marginal VFR   IFR   Intensive IFR   Very Intensive IFR
Visi :
Ceiling :
>= 8 km
>= 3000ft
5 to 8 km
1000 to 3000 ft
1500m to 5 km
500 to 1000 ft
800 to 1500m
200 to 500 ft
< 800m
< 200 ft
Symbols :   Thunderstorms  Fog  Heavy snow  Heavy precipitations  Wind > 20 kt
SIGMETs :     Misc.  Thunderstorms  Icing  Turbulence  Mountain Waves  Volcanic Ashes






- Airport Elevation : 461 ft
- IATA code : WIE


ETOU - Wiesbaden Army

CURRENT METAR :
  • 130756Z AUTO 00000KT 9999 CLR 21/19 A2993 RMK AO2 SLP133 T02090188 $

EXPIRED METARs :
  • 130656Z AUTO 00000KT 9999 CLR 21/19 A2992 RMK AO2 LTG DSNT E-SE RAE25DZB25E26RAB26E27 TSE11 SLP129 P0006 T02080187 $
  • 130627Z AUTO 12005KT 9999 VCTS FEW025 21/18 A2992 RMK AO2 RAE25DZB25E26RAB26E27 TSE11 SLP129 $
  • 130611Z AUTO 33005KT 8000 RA SCT023 21/17 A2991 RMK AO2 LTG DSNT E TSE11 PRESRR SLP126 $
  • 130556Z AUTO 35009G14KT 9999 -TSRA FEW007 SCT075 23/16 A2989 RMK AO2 RAB0459E10RAB50 TSB05E20TSB49 SLP118 P0000 60000 T02300156 10233 20197 55000 $
  • 130520Z AUTO 02004KT 9999 VCTS FEW070 BKN080 23/17 A2991 RMK AO2 RAB0459E10 TSB05E20 SLP124 $
  • 130510Z AUTO 31003KT 9999 TS SCT080 22/18 A2991 RMK AO2 RAB0459E10 TSB05 SLP124 $
  • 130505Z AUTO 32004KT 9999 -TSRA BKN080 22/18 A2991 RMK AO2 RAB0459 TSB05 SLP124 $

TAF AMD TAF ETOU
Valid from the 13 at 04:00 until the 14 at 10:00 UTC


130509Z 1304/1410 25010KT 9999 -TSRA BKN080CB QNH2988INS
BECMG 1308/1309 18010KT 9999 VCTS SCT090 BKN120CB QNH2988INS
TEMPO 1309/1312 20010G20KT 8000 -TSRA BKN090CB
BECMG 1316/1317 VRB06KT 9999 VCTS BKN120CB QNH2986INS
BECMG 1401/1402 VRB06KT 9999 NSW SCT060 BKN100 QNH2987INS TX28/1314Z TN20/1305Z



MET'MAP, your aeronautical weather chart ! - Copyright ORBIFLY December 2007 - Disclaimer

ORBIFLY MET'MAP TEAM :

Programming & Development : Alexandra Zaïnal
Concept & original design : Baudouin d'Aumeries
Assistance for programming : Marc-Olivier Méhu
Technical & hardware support : Manuel Goepfert

Contact : metmap@orbifly.com




SOURCES & CREDITS :

   NOAA